Airfield :







YOU CAN JOIN US ON...

 
LOGIN :

Register | Disclaimer

   EN    FR    IT 

 









Legend :    VFR   Marginal VFR   IFR   Intensive IFR   Very Intensive IFR
Visi :
Ceiling :
>= 8 km
>= 3000ft
5 to 8 km
1000 to 3000 ft
1500m to 5 km
500 to 1000 ft
800 to 1500m
200 to 500 ft
< 800m
< 200 ft
Symbols :   Thunderstorms  Fog  Heavy snow  Heavy precipitations  Wind > 20 kt






- Airport Elevation : 56 ft
- IATA code : MCP


SBMQ - Macapa Int.

CURRENT METAR :
  • 221800Z 06012KT 9999 FEW025 35/24 Q1009

EXPIRED METARs :
  • 221700Z 09012KT 9999 FEW025 35/23 Q1010
  • 221600Z 09012KT 9999 SCT023 35/25 Q1011

TAF TAF SBMQ
Valid from the 22 at 18:00 until the 23 at 18:00 UTC


221500Z 2218/2318 06015KT 9999 FEW020 TN25/2309Z TX35/2317Z
BECMG 2302/2304 36005KT
BECMG 2310/2312 04010KT SCT015
BECMG 2314/2316 07015KT SCT030 RMK PGY
SBAZ FIR / South America



MET'MAP, your aeronautical weather chart ! - Copyright ORBIFLY December 2007 - Disclaimer

ORBIFLY MET'MAP TEAM :

Programming & Development : Alexandra Zaïnal
Concept & original design : Baudouin d'Aumeries
Assistance for programming : Marc-Olivier Méhu
Technical & hardware support : Manuel Goepfert

Contact : metmap@orbifly.com




SOURCES & CREDITS :

   NOAA